Time;durP1;ratioP1;P1;durP2;ratioP2;P2;SDS_P1;SDS_P2;PMS_P1;PMS_P2;Temp;Humidity;BMP_temperature;BMP_pressure;BME280_temperature;BME280_humidity;BME280_pressure;Samples;Min_cycle;Max_cycle;Signal;HPM_P1;HPM_P2
2023/01/08 00:02:16;;;;;;;4.03;2.38;;;9.80;99.90;;;;;;5071355;28;20540;-68
2023/01/08 00:04:42;;;;;;;5.63;2.20;;;9.80;99.90;;;;;;5071096;28;20033;-68
2023/01/08 00:07:08;;;;;;;2.97;2.05;;;9.80;99.90;;;;;;5070523;28;20087;-67
2023/01/08 00:09:33;;;;;;;3.35;2.40;;;9.80;99.90;;;;;;5070907;28;20439;-69
2023/01/08 00:11:59;;;;;;;3.40;2.53;;;9.80;99.90;;;;;;5070635;28;20044;-68
2023/01/08 00:14:25;;;;;;;4.13;2.58;;;9.80;99.90;;;;;;5070993;28;20036;-68
2023/01/08 00:16:50;;;;;;;3.20;2.30;;;9.80;99.90;;;;;;5070536;28;20071;-69
2023/01/08 00:19:17;;;;;;;2.50;2.30;;;9.80;99.90;;;;;;5067546;28;20080;-68
2023/01/08 00:21:43;;;;;;;3.60;2.53;;;9.80;99.90;;;;;;5070702;28;20037;-67
2023/01/08 00:24:08;;;;;;;3.00;2.40;;;9.70;99.90;;;;;;5065801;28;20108;-69
2023/01/08 00:26:34;;;;;;;5.45;2.80;;;9.70;99.90;;;;;;5069367;28;20113;-69
2023/01/08 00:28:59;;;;;;;3.42;2.47;;;9.70;99.90;;;;;;5070704;28;20521;-70
2023/01/08 00:31:25;;;;;;;3.08;2.33;;;9.70;99.90;;;;;;5070793;28;20048;-70
2023/01/08 00:33:51;;;;;;;2.80;2.38;;;9.70;99.90;;;;;;5068257;28;20094;-68
2023/01/08 00:36:18;;;;;;;2.55;2.20;;;9.70;99.90;;;;;;5069236;28;20047;-69
2023/01/08 00:38:45;;;;;;;3.85;2.42;;;9.70;99.90;;;;;;5053112;28;20040;-68
2023/01/08 00:41:12;;;;;;;3.47;2.30;;;9.70;99.90;;;;;;5069282;28;20036;-67
2023/01/08 00:43:38;;;;;;;4.20;2.40;;;9.70;99.90;;;;;;5070463;28;20036;-69
2023/01/08 00:46:04;;;;;;;3.25;2.47;;;9.70;99.90;;;;;;5070518;28;20082;-69
2023/01/08 00:48:30;;;;;;;4.35;2.60;;;9.70;99.90;;;;;;5068378;28;20041;-68
2023/01/08 00:50:55;;;;;;;4.40;2.70;;;9.70;99.90;;;;;;5068346;28;20043;-70
2023/01/08 00:53:21;;;;;;;2.70;2.45;;;9.70;99.90;;;;;;5069645;28;20040;-69
2023/01/08 00:55:47;;;;;;;3.72;2.42;;;9.70;99.90;;;;;;5069718;28;20055;-68
2023/01/08 00:58:14;;;;;;;3.92;2.17;;;9.70;99.90;;;;;;5069515;28;20466;-68
2023/01/08 01:00:39;;;;;;;4.18;2.30;;;9.60;99.90;;;;;;5069538;28;20053;-67
2023/01/08 01:03:05;;;;;;;4.65;2.30;;;9.60;99.90;;;;;;5053397;28;20044;-68
2023/01/08 01:05:31;;;;;;;3.65;2.10;;;9.60;99.90;;;;;;5070331;28;20387;-69
2023/01/08 01:07:57;;;;;;;4.50;1.67;;;9.60;99.90;;;;;;5069897;28;20040;-69
2023/01/08 01:10:23;;;;;;;4.32;1.60;;;9.50;99.90;;;;;;5069001;28;20039;-67
2023/01/08 01:12:49;;;;;;;4.30;1.50;;;9.50;99.90;;;;;;5066344;28;20037;-67
2023/01/08 01:15:18;;;;;;;3.13;1.27;;;9.50;99.90;;;;;;5069770;28;20048;-68
2023/01/08 01:17:45;;;;;;;2.22;1.10;;;9.50;99.90;;;;;;5064565;28;20505;-68
2023/01/08 01:20:13;;;;;;;2.53;0.95;;;9.40;99.90;;;;;;5069639;28;20475;-68
2023/01/08 01:22:40;;;;;;;4.80;0.90;;;9.30;99.90;;;;;;5069353;28;20052;-68
2023/01/08 01:25:06;;;;;;;2.28;0.80;;;9.20;99.90;;;;;;5069227;28;20083;-68
2023/01/08 01:27:32;;;;;;;3.80;0.90;;;9.10;99.90;;;;;;5069506;28;20036;-68
2023/01/08 01:29:58;;;;;;;1.73;0.70;;;9.10;99.90;;;;;;5069536;28;20403;-69
2023/01/08 01:32:23;;;;;;;6.13;1.00;;;9.00;99.90;;;;;;5068680;28;20509;-69
2023/01/08 01:34:49;;;;;;;6.00;1.00;;;9.00;99.90;;;;;;5069301;28;20040;-69
2023/01/08 01:37:15;;;;;;;7.47;1.67;;;8.90;99.90;;;;;;5068819;28;20047;-69
2023/01/08 01:39:45;;;;;;;3.35;0.80;;;8.80;99.90;;;;;;5052772;28;20047;-68
2023/01/08 01:42:38;;;;;;;4.10;1.00;;;8.80;99.90;;;;;;5069379;28;20043;-68
2023/01/08 01:44:59;;;;;;;6.57;1.10;;;8.80;99.90;;;;;;5068757;28;20052;-68
2023/01/08 01:47:33;;;;;;;5.60;1.63;;;8.70;99.90;;;;;;5068828;28;20110;-68
2023/01/08 01:50:07;;;;;;;5.55;1.88;;;8.70;99.90;;;;;;5069154;28;20119;-68
2023/01/08 01:52:39;;;;;;;6.85;1.55;;;8.70;99.90;;;;;;5069470;28;20395;-68
2023/01/08 01:55:06;;;;;;;6.68;1.90;;;8.60;99.90;;;;;;5069254;28;20048;-69
2023/01/08 01:57:33;;;;;;;5.35;1.17;;;8.60;99.90;;;;;;5068808;28;20040;-68
2023/01/08 02:00:00;;;;;;;8.52;1.50;;;8.60;99.90;;;;;;5052563;28;20491;-67
2023/01/08 02:02:26;;;;;;;6.72;1.20;;;8.60;99.90;;;;;;5068936;28;20056;-67
2023/01/08 02:04:52;;;;;;;11.35;1.73;;;8.60;99.90;;;;;;5068396;28;20396;-69
2023/01/08 02:07:35;;;;;;;9.50;1.65;;;8.50;99.90;;;;;;5068288;28;20043;-68
2023/01/08 02:10:24;;;;;;;6.30;1.40;;;8.50;99.90;;;;;;5069145;28;20040;-68
2023/01/08 02:13:03;;;;;;;6.97;1.45;;;8.50;99.90;;;;;;5068540;28;20048;-69
2023/01/08 02:15:34;;;;;;;14.95;2.13;;;8.50;99.90;;;;;;5066303;28;20037;-68
2023/01/08 02:18:07;;;;;;;9.73;1.60;;;8.50;99.90;;;;;;5067181;28;20041;-67
2023/01/08 02:21:07;;;;;;;7.28;1.60;;;8.50;99.90;;;;;;5068581;28;20044;-67
2023/01/08 02:23:52;;;;;;;7.82;1.27;;;8.50;99.90;;;;;;4992286;28;20427;-69
2023/01/08 02:26:23;;;;;;;15.40;2.80;;;8.50;99.90;;;;;;5011224;28;20132;-68
2023/01/08 02:29:07;;;;;;;5.53;1.17;;;8.50;99.90;;;;;;4993583;28;20041;-68
2023/01/08 02:31:35;;;;;;;7.38;1.30;;;8.50;99.90;;;;;;5023185;28;20296;-68
2023/01/08 02:34:01;;;;;;;10.27;1.70;;;8.50;99.90;;;;;;4994814;28;20395;-68
2023/01/08 02:36:36;;;;;;;10.05;2.17;;;8.50;99.90;;;;;;5011131;28;20041;-70
2023/01/08 02:39:02;;;;;;;8.55;1.77;;;8.40;99.90;;;;;;4994708;28;20046;-69
2023/01/08 02:41:45;;;;;;;8.20;1.40;;;8.50;99.90;;;;;;5011133;28;20033;-68
2023/01/08 02:44:12;;;;;;;;;;;8.40;99.90;;;;;;5011708;28;20033;-68
2023/01/08 02:46:40;;;;;;;13.82;1.95;;;8.40;99.90;;;;;;5011337;28;20283;-67
2023/01/08 02:49:11;;;;;;;9.45;1.20;;;8.40;99.90;;;;;;5015191;28;20081;-68
2023/01/08 02:51:44;;;;;;;5.38;1.15;;;8.40;99.90;;;;;;5014829;28;20170;-67
2023/01/08 02:54:15;;;;;;;;;;;8.40;99.90;;;;;;5014602;28;20053;-68
2023/01/08 02:56:44;;;;;;;7.70;1.70;;;8.40;99.90;;;;;;5013968;28;19964;-69
2023/01/08 02:59:13;;;;;;;8.90;1.38;;;8.30;99.90;;;;;;5043003;28;21340;-67
2023/01/08 03:01:40;;;;;;;7.90;1.63;;;8.30;99.90;;;;;;5072518;28;20473;-69
2023/01/08 03:04:12;;;;;;;5.05;1.33;;;8.30;99.90;;;;;;5072408;28;20044;-68
2023/01/08 03:06:38;;;;;;;5.57;1.23;;;8.30;99.90;;;;;;5071814;28;20045;-68
2023/01/08 03:09:05;;;;;;;4.45;1.15;;;8.30;99.90;;;;;;5071594;28;20133;-68
2023/01/08 03:11:46;;;;;;;8.32;1.60;;;8.20;99.90;;;;;;5072417;28;20487;-67
2023/01/08 03:14:22;;;;;;;5.65;1.30;;;8.20;99.90;;;;;;5055154;28;20123;-68
2023/01/08 03:16:54;;;;;;;6.22;1.48;;;8.20;99.90;;;;;;5071369;28;20055;-68
2023/01/08 03:19:41;;;;;;;6.07;1.63;;;8.20;99.90;;;;;;5071877;28;20111;-69
2023/01/08 03:22:10;;;;;;;9.77;1.77;;;8.20;99.90;;;;;;5071815;28;20290;-67
2023/01/08 03:24:38;;;;;;;5.40;1.52;;;8.20;99.90;;;;;;5055294;28;20056;-67
2023/01/08 03:27:07;;;;;;;5.82;1.77;;;8.20;99.90;;;;;;5054996;28;20040;-69
2023/01/08 03:29:36;;;;;;;4.32;1.63;;;8.20;99.90;;;;;;5071846;28;20206;-68
2023/01/08 03:32:06;;;;;;;3.70;1.60;;;8.20;99.90;;;;;;5070560;28;20086;-68
2023/01/08 03:34:34;;;;;;;6.18;2.00;;;8.30;99.90;;;;;;5066953;28;20048;-68
2023/01/08 03:37:03;;;;;;;4.65;2.00;;;8.20;99.90;;;;;;5053100;28;20198;-68
2023/01/08 03:39:35;;;;;;;8.27;2.03;;;8.30;99.90;;;;;;5069434;28;20115;-67
2023/01/08 03:42:04;;;;;;;4.27;2.00;;;8.30;99.90;;;;;;5070556;28;20040;-68
2023/01/08 03:44:29;;;;;;;4.03;2.25;;;8.30;99.90;;;;;;5068457;28;20340;-68
2023/01/08 03:46:57;;;;;;;3.53;2.42;;;8.30;99.90;;;;;;5071302;28;20056;-68
2023/01/08 03:49:25;;;;;;;4.68;2.55;;;8.40;99.90;;;;;;5070779;28;20048;-68
2023/01/08 03:51:51;;;;;;;6.25;2.67;;;8.40;99.90;;;;;;5068069;28;20049;-70
2023/01/08 03:54:22;;;;;;;3.65;2.40;;;8.40;99.90;;;;;;5071017;28;20063;-68
2023/01/08 03:56:48;;;;;;;5.03;2.33;;;8.50;99.90;;;;;;5071303;28;20048;-68
2023/01/08 03:59:15;;;;;;;4.20;2.58;;;8.50;99.90;;;;;;5070702;28;20056;-68
2023/01/08 04:01:41;;;;;;;5.70;2.83;;;8.50;99.90;;;;;;5071577;28;20048;-68
2023/01/08 04:04:07;;;;;;;2.80;2.25;;;8.50;99.90;;;;;;5070912;28;20040;-68
2023/01/08 04:06:33;;;;;;;4.93;2.60;;;8.60;99.90;;;;;;5071490;28;20435;-67
2023/01/08 04:08:58;;;;;;;3.05;2.17;;;8.60;99.90;;;;;;5071210;28;20044;-68
2023/01/08 04:11:24;;;;;;;3.50;2.47;;;8.60;99.90;;;;;;5070512;28;20036;-68
2023/01/08 04:13:50;;;;;;;3.80;2.05;;;8.60;99.90;;;;;;5071193;28;20131;-68
2023/01/08 04:16:16;;;;;;;5.22;2.33;;;8.60;99.90;;;;;;5070646;28;20054;-68
2023/01/08 04:18:41;;;;;;;4.07;1.95;;;8.60;99.90;;;;;;5070821;28;20036;-68
2023/01/08 04:21:07;;;;;;;4.25;2.05;;;8.60;99.90;;;;;;5070658;28;20453;-68
2023/01/08 04:23:32;;;;;;;3.88;1.80;;;8.70;99.90;;;;;;5071028;28;20047;-67
2023/01/08 04:25:58;;;;;;;3.80;1.88;;;8.60;99.90;;;;;;5071016;28;20064;-69
2023/01/08 04:28:24;;;;;;;5.43;1.88;;;8.60;99.90;;;;;;5070576;28;20084;-68
2023/01/08 04:30:50;;;;;;;4.25;1.70;;;8.60;99.90;;;;;;5070599;28;20574;-67
2023/01/08 04:33:16;;;;;;;3.40;1.70;;;8.70;99.90;;;;;;5070532;28;20127;-69
2023/01/08 04:35:41;;;;;;;4.88;1.48;;;8.60;99.90;;;;;;5070331;28;20111;-68
2023/01/08 04:38:07;;;;;;;5.68;2.00;;;8.60;99.90;;;;;;5070292;28;20086;-68
2023/01/08 04:40:33;;;;;;;3.58;1.50;;;8.60;99.90;;;;;;5071543;28;20032;-68
2023/01/08 04:42:59;;;;;;;2.35;1.58;;;8.60;99.90;;;;;;5070175;28;20048;-68
2023/01/08 04:45:24;;;;;;;3.58;1.50;;;8.60;99.90;;;;;;5068575;28;20033;-68
2023/01/08 04:47:57;;;;;;;1.67;1.23;;;8.60;99.90;;;;;;5069342;28;20049;-68
2023/01/08 04:50:23;;;;;;;3.03;1.50;;;8.60;99.90;;;;;;5068804;28;20055;-69
2023/01/08 04:52:49;;;;;;;3.83;1.65;;;8.60;99.90;;;;;;5070220;28;20047;-67
2023/01/08 04:55:15;;;;;;;4.88;1.60;;;8.60;99.90;;;;;;5070016;28;20499;-67
2023/01/08 04:57:40;;;;;;;4.45;1.55;;;8.60;99.90;;;;;;5052108;28;20419;-68
2023/01/08 05:00:06;;;;;;;3.95;1.60;;;8.60;99.90;;;;;;5069827;28;20051;-69
2023/01/08 05:02:33;;;;;;;3.28;1.60;;;8.60;99.90;;;;;;5078687;28;20115;-68
2023/01/08 05:04:58;;;;;;;2.42;1.20;;;8.60;99.90;;;;;;5070407;28;20510;-69
2023/01/08 05:07:24;;;;;;;3.20;1.40;;;8.60;99.90;;;;;;5068452;28;20048;-68
2023/01/08 05:09:49;;;;;;;3.47;1.40;;;8.50;99.90;;;;;;5069418;28;20044;-67
2023/01/08 05:12:15;;;;;;;4.63;1.90;;;8.50;99.90;;;;;;5069735;28;20127;-68
2023/01/08 05:14:40;;;;;;;3.33;1.65;;;8.60;99.90;;;;;;5069761;28;20059;-68
2023/01/08 05:17:06;;;;;;;4.85;1.70;;;8.50;99.90;;;;;;5069920;28;20050;-68
2023/01/08 05:19:32;;;;;;;5.38;1.75;;;8.60;99.90;;;;;;5053402;28;20044;-69
2023/01/08 05:21:57;;;;;;;4.07;1.95;;;8.50;99.90;;;;;;5069668;28;20032;-67
2023/01/08 05:24:23;;;;;;;4.13;1.70;;;8.50;99.90;;;;;;5053847;28;20048;-68
2023/01/08 05:26:49;;;;;;;5.82;1.58;;;8.50;99.90;;;;;;5053157;28;20044;-69
2023/01/08 05:29:14;;;;;;;1.85;1.30;;;8.50;99.90;;;;;;5070082;28;20503;-69
2023/01/08 05:31:40;;;;;;;3.72;1.73;;;8.50;99.90;;;;;;5069609;28;20119;-68
2023/01/08 05:34:06;;;;;;;6.90;1.95;;;8.40;99.90;;;;;;5069764;28;20372;-69
2023/01/08 05:36:31;;;;;;;3.92;1.67;;;8.40;99.90;;;;;;5069568;28;20092;-68
2023/01/08 05:38:57;;;;;;;3.88;1.90;;;8.40;99.90;;;;;;5069396;28;20037;-68
2023/01/08 05:41:23;;;;;;;5.57;2.30;;;8.40;99.90;;;;;;5069588;28;20043;-68
2023/01/08 05:43:48;;;;;;;5.05;2.20;;;8.40;99.90;;;;;;5069155;28;20561;-70
2023/01/08 05:46:14;;;;;;;2.92;1.80;;;8.40;99.90;;;;;;5052998;28;20037;-68
2023/01/08 05:48:40;;;;;;;4.80;2.17;;;8.30;99.90;;;;;;5070760;28;20395;-68
2023/01/08 05:51:05;;;;;;;3.20;2.30;;;8.30;99.90;;;;;;5052858;28;20036;-68
2023/01/08 05:53:31;;;;;;;5.65;2.17;;;8.30;99.90;;;;;;5069195;28;20044;-68
2023/01/08 05:56:01;;;;;;;3.15;2.00;;;8.30;99.90;;;;;;5070417;28;20102;-69
2023/01/08 05:58:27;;;;;;;6.43;2.20;;;8.30;99.90;;;;;;5069377;28;21151;-68
2023/01/08 06:00:53;;;;;;;4.18;2.20;;;8.30;99.90;;;;;;5069256;28;20087;-68
2023/01/08 06:03:22;;;;;;;4.28;2.00;;;8.20;99.90;;;;;;5070445;28;20040;-69
2023/01/08 06:05:48;;;;;;;5.40;1.77;;;8.20;99.90;;;;;;5068929;28;20116;-68
2023/01/08 06:08:14;;;;;;;2.70;1.60;;;8.20;99.90;;;;;;5069047;28;20467;-68
2023/01/08 06:10:40;;;;;;;6.10;1.80;;;8.20;99.90;;;;;;5066501;28;20044;-68
2023/01/08 06:13:08;;;;;;;4.63;1.95;;;8.20;99.90;;;;;;5068730;28;20051;-67
2023/01/08 06:15:34;;;;;;;4.68;1.70;;;8.20;99.90;;;;;;5068874;28;20040;-67
2023/01/08 06:18:03;;;;;;;6.90;2.10;;;8.20;99.90;;;;;;5067232;28;20047;-68
2023/01/08 06:20:29;;;;;;;6.30;1.80;;;8.10;99.90;;;;;;5063593;28;20549;-68
2023/01/08 06:22:55;;;;;;;4.38;1.70;;;8.10;99.90;;;;;;5067379;28;20040;-68
2023/01/08 06:25:20;;;;;;;3.63;1.40;;;8.10;99.90;;;;;;5067546;28;20036;-69
2023/01/08 06:27:50;;;;;;;4.15;1.67;;;8.20;99.90;;;;;;5068588;28;20044;-68
2023/01/08 06:30:16;;;;;;;4.88;1.67;;;8.20;99.90;;;;;;5051789;28;20133;-68
2023/01/08 06:32:42;;;;;;;4.95;1.38;;;8.20;99.90;;;;;;5069141;28;20111;-69
2023/01/08 06:35:08;;;;;;;7.00;2.05;;;8.20;99.90;;;;;;5068472;28;20127;-68
2023/01/08 06:37:33;;;;;;;5.47;1.58;;;8.20;99.90;;;;;;5068248;28;20047;-68
2023/01/08 06:39:59;;;;;;;7.13;1.40;;;8.20;99.90;;;;;;5068037;28;20044;-67
2023/01/08 06:42:25;;;;;;;6.20;2.13;;;8.20;99.90;;;;;;5068557;28;20048;-68
2023/01/08 06:44:50;;;;;;;4.82;1.70;;;8.10;99.90;;;;;;5068844;28;20039;-68
2023/01/08 06:47:16;;;;;;;3.00;1.10;;;8.10;99.90;;;;;;5068327;28;20048;-68
2023/01/08 06:49:42;;;;;;;4.55;1.15;;;8.10;99.90;;;;;;5068133;28;20040;-68
2023/01/08 06:52:07;;;;;;;3.13;0.98;;;8.10;99.90;;;;;;5068445;28;20052;-68
2023/01/08 06:54:33;;;;;;;3.53;1.17;;;8.00;99.90;;;;;;5068464;28;20040;-68
2023/01/08 06:56:59;;;;;;;6.82;1.20;;;8.10;99.90;;;;;;5068147;28;20395;-67
2023/01/08 06:59:24;;;;;;;5.55;1.10;;;8.10;99.90;;;;;;5067296;28;20053;-67
2023/01/08 07:01:50;;;;;;;4.53;1.30;;;8.00;99.90;;;;;;5067949;28;20434;-67
2023/01/08 07:04:17;;;;;;;4.20;1.00;;;8.00;99.90;;;;;;5068476;28;20049;-68
2023/01/08 07:06:42;;;;;;;8.02;1.65;;;8.00;99.90;;;;;;5052062;28;20037;-68
2023/01/08 07:09:12;;;;;;;5.28;1.35;;;8.00;99.90;;;;;;5067802;28;20110;-67
2023/01/08 07:11:38;;;;;;;3.33;1.30;;;8.00;99.90;;;;;;5068243;28;20127;-67
2023/01/08 07:14:03;;;;;;;3.50;1.10;;;8.00;99.90;;;;;;5061456;28;20139;-67
2023/01/08 07:16:29;;;;;;;4.50;1.42;;;7.90;99.90;;;;;;5068091;28;20044;-68
2023/01/08 07:18:54;;;;;;;6.13;1.52;;;8.00;99.90;;;;;;5065885;28;20115;-66
2023/01/08 07:21:21;;;;;;;6.78;1.50;;;8.00;99.90;;;;;;5066539;28;20086;-66
2023/01/08 07:23:48;;;;;;;5.28;1.05;;;8.00;99.90;;;;;;5067479;28;20048;-67
2023/01/08 07:26:13;;;;;;;4.10;1.42;;;8.00;99.90;;;;;;5047204;28;20044;-68
2023/01/08 07:28:40;;;;;;;6.75;1.60;;;7.90;99.90;;;;;;5064695;28;20051;-67
2023/01/08 07:31:06;;;;;;;2.83;1.25;;;7.90;99.90;;;;;;5062510;28;20499;-68
2023/01/08 07:33:32;;;;;;;3.78;1.55;;;7.80;99.90;;;;;;5066257;28;20076;-67
2023/01/08 07:35:57;;;;;;;5.78;1.50;;;7.80;99.90;;;;;;5069467;28;20057;-68
2023/01/08 07:38:23;;;;;;;6.18;1.90;;;7.80;99.90;;;;;;5071021;28;20571;-68
2023/01/08 07:40:49;;;;;;;5.20;1.52;;;7.70;99.90;;;;;;5071450;28;20041;-68
2023/01/08 07:43:15;;;;;;;9.07;1.60;;;7.70;99.90;;;;;;5068191;28;20036;-68
2023/01/08 07:45:41;;;;;;;8.05;1.50;;;7.60;99.90;;;;;;5069496;28;20037;-69
2023/01/08 07:48:09;;;;;;;5.90;1.50;;;7.60;99.90;;;;;;5067688;28;20583;-68
2023/01/08 07:50:36;;;;;;;5.30;1.98;;;7.60;99.90;;;;;;5069074;28;20036;-68
2023/01/08 07:53:03;;;;;;;9.90;1.60;;;7.50;99.90;;;;;;5070251;28;20041;-67
2023/01/08 07:55:29;;;;;;;5.05;1.83;;;7.50;99.90;;;;;;5054292;28;20043;-67
2023/01/08 07:57:55;;;;;;;4.72;1.30;;;7.50;99.90;;;;;;5069086;28;20132;-67
2023/01/08 08:00:21;;;;;;;5.10;1.60;;;7.40;99.90;;;;;;5070497;28;20195;-67
2023/01/08 08:02:47;;;;;;;5.25;1.40;;;7.40;99.90;;;;;;5067647;28;20032;-68
2023/01/08 08:05:13;;;;;;;3.75;1.35;;;7.40;99.90;;;;;;5069286;28;20453;-66
2023/01/08 08:07:38;;;;;;;6.65;1.40;;;7.30;99.90;;;;;;5069376;28;20470;-67
2023/01/08 08:10:05;;;;;;;5.90;1.20;;;7.40;99.90;;;;;;5066801;28;20044;-68
2023/01/08 08:12:31;;;;;;;4.03;1.73;;;7.40;99.90;;;;;;5068885;28;20036;-67
2023/01/08 08:14:56;;;;;;;6.95;1.60;;;7.30;99.90;;;;;;5069736;28;20127;-68
2023/01/08 08:17:22;;;;;;;5.05;1.92;;;7.30;99.90;;;;;;5070423;28;20452;-69
2023/01/08 08:19:48;;;;;;;5.03;1.50;;;7.30;99.90;;;;;;5067914;28;20387;-68
2023/01/08 08:22:13;;;;;;;5.78;1.20;;;7.30;99.90;;;;;;5070693;28;20040;-69
2023/01/08 08:24:39;;;;;;;4.78;1.40;;;7.30;99.90;;;;;;5068153;28;20063;-67
2023/01/08 08:27:05;;;;;;;7.85;1.80;;;7.30;99.90;;;;;;5070484;28;20044;-67
2023/01/08 08:29:32;;;;;;;4.20;1.23;;;7.30;99.90;;;;;;5068735;28;20048;-68
2023/01/08 08:31:58;;;;;;;6.30;1.67;;;7.30;99.90;;;;;;5081000;28;20503;-68
2023/01/08 08:34:23;;;;;;;3.72;1.60;;;7.30;99.90;;;;;;5068616;28;20040;-68
2023/01/08 08:36:49;;;;;;;3.08;1.10;;;7.40;99.90;;;;;;5068103;28;20106;-68
2023/01/08 08:39:15;;;;;;;3.40;1.20;;;7.40;99.90;;;;;;5069815;28;20483;-68
2023/01/08 08:41:43;;;;;;;3.92;1.30;;;7.40;99.90;;;;;;5050924;28;20462;-68
2023/01/08 08:44:09;;;;;;;3.50;1.25;;;7.30;99.90;;;;;;5051589;28;20036;-68
2023/01/08 08:46:34;;;;;;;4.28;1.13;;;7.30;99.90;;;;;;5069483;28;20044;-68
2023/01/08 08:49:00;;;;;;;7.32;1.50;;;7.30;99.90;;;;;;5069907;28;20075;-68
2023/01/08 08:51:26;;;;;;;4.95;1.33;;;7.40;99.90;;;;;;5065842;28;20174;-69
2023/01/08 08:53:51;;;;;;;3.63;1.08;;;7.40;99.90;;;;;;5064607;28;20123;-68
2023/01/08 08:56:17;;;;;;;4.63;1.23;;;7.40;99.90;;;;;;5067151;28;20040;-67
2023/01/08 08:58:44;;;;;;;4.47;1.38;;;7.40;99.90;;;;;;5069584;28;20351;-67
2023/01/08 09:01:11;;;;;;;4.03;1.30;;;7.40;99.90;;;;;;5053337;28;20106;-67
2023/01/08 09:03:37;;;;;;;4.57;1.40;;;7.40;99.90;;;;;;5069255;28;20040;-69
2023/01/08 09:06:03;;;;;;;5.35;1.00;;;7.50;99.90;;;;;;5065890;28;20119;-67
2023/01/08 09:08:29;;;;;;;6.60;1.50;;;7.50;99.90;;;;;;5050493;28;20545;-67
2023/01/08 09:10:55;;;;;;;4.63;1.27;;;7.50;99.90;;;;;;5068484;28;20398;-69
2023/01/08 09:13:21;;;;;;;4.93;1.20;;;7.50;99.90;;;;;;5067806;28;20106;-68
2023/01/08 09:15:46;;;;;;;6.28;1.30;;;7.60;99.90;;;;;;5069393;28;20453;-68
2023/01/08 09:18:12;;;;;;;5.03;1.15;;;7.60;99.90;;;;;;5067407;28;20053;-67
2023/01/08 09:20:38;;;;;;;4.93;1.13;;;7.60;99.90;;;;;;5067856;28;20679;-67
2023/01/08 09:23:03;;;;;;;5.10;1.20;;;7.60;99.90;;;;;;5063566;28;20135;-67
2023/01/08 09:25:29;;;;;;;6.00;1.15;;;7.80;99.90;;;;;;5069178;28;20454;-69
2023/01/08 09:28:04;;;;;;;6.10;1.40;;;7.80;99.90;;;;;;5065786;28;20548;-69
2023/01/08 09:30:31;;;;;;;3.45;1.10;;;7.90;99.90;;;;;;5067836;28;20044;-68
2023/01/08 09:32:58;;;;;;;8.00;1.25;;;8.00;99.90;;;;;;5065871;28;20040;-67
2023/01/08 09:35:24;;;;;;;5.28;1.20;;;8.10;99.90;;;;;;5067426;28;20048;-68
2023/01/08 09:37:54;;;;;;;7.65;1.30;;;8.20;99.90;;;;;;5065884;28;20060;-69
2023/01/08 09:40:23;;;;;;;9.57;1.45;;;8.30;99.90;;;;;;5069362;28;20032;-70
2023/01/08 09:42:58;;;;;;;4.25;1.08;;;8.40;99.90;;;;;;5064977;28;20740;-67
2023/01/08 09:45:33;;;;;;;9.20;1.95;;;8.50;99.90;;;;;;5067929;28;20048;-69
2023/01/08 09:48:04;;;;;;;12.02;1.83;;;8.50;99.90;;;;;;5068850;28;20052;-68
2023/01/08 09:50:31;;;;;;;9.23;1.30;;;8.70;99.90;;;;;;5067890;28;20044;-68
2023/01/08 09:52:58;;;;;;;7.07;1.40;;;8.70;99.90;;;;;;5067959;28;20092;-68
2023/01/08 09:55:24;;;;;;;7.63;1.25;;;8.90;99.90;;;;;;5066666;28;20055;-68
2023/01/08 09:57:50;;;;;;;8.80;1.50;;;9.00;99.90;;;;;;5067670;28;20083;-69
2023/01/08 10:00:30;;;;;;;6.40;1.27;;;9.10;99.90;;;;;;5052136;28;20084;-67
2023/01/08 10:02:56;;;;;;;7.95;1.48;;;9.20;99.90;;;;;;5065487;28;20049;-68
2023/01/08 10:05:24;;;;;;;9.07;1.55;;;9.30;99.90;;;;;;5066610;28;20123;-70
2023/01/08 10:07:49;;;;;;;7.72;1.55;;;9.40;99.90;;;;;;5052910;28;20499;-69
2023/01/08 10:10:15;;;;;;;7.68;1.40;;;9.50;99.90;;;;;;5069295;28;21286;-69
2023/01/08 10:12:41;;;;;;;9.85;1.33;;;9.70;99.90;;;;;;5069034;28;20044;-67
2023/01/08 10:15:12;;;;;;;8.55;1.52;;;9.80;99.90;;;;;;5068785;28;20040;-69
2023/01/08 10:17:40;;;;;;;7.03;1.53;;;9.90;99.90;;;;;;5066383;28;20119;-67
2023/01/08 10:20:22;;;;;;;6.03;1.40;;;9.90;99.90;;;;;;5074446;28;20886;-69
2023/01/08 10:22:53;;;;;;;7.07;1.27;;;9.90;99.90;;;;;;5067980;28;20041;-69
2023/01/08 10:25:27;;;;;;;7.10;1.38;;;10.10;99.90;;;;;;5065449;28;21314;-68
2023/01/08 10:28:02;;;;;;;10.68;1.58;;;10.20;99.90;;;;;;5067494;28;20101;-67
2023/01/08 10:30:35;;;;;;;6.30;1.27;;;10.30;99.90;;;;;;5068914;28;20371;-67
2023/01/08 10:33:17;;;;;;;7.38;1.30;;;10.50;99.90;;;;;;5049834;28;20124;-70
2023/01/08 10:35:56;;;;;;;8.57;1.50;;;10.60;99.90;;;;;;5068603;28;20444;-68
2023/01/08 10:38:31;;;;;;;9.88;2.08;;;10.70;99.90;;;;;;5066190;28;20051;-66
2023/01/08 10:40:57;;;;;;;6.40;1.48;;;10.70;99.90;;;;;;5068748;28;20368;-69
2023/01/08 10:43:33;;;;;;;6.97;1.58;;;10.60;99.90;;;;;;5067527;28;20433;-66
2023/01/08 10:46:02;;;;;;;6.68;1.63;;;10.60;99.90;;;;;;5068258;28;20123;-67
2023/01/08 10:48:39;;;;;;;6.72;1.60;;;10.50;99.90;;;;;;5066983;28;20052;-69
2023/01/08 10:51:22;;;;;;;6.85;1.45;;;10.40;99.90;;;;;;5068660;28;20044;-66
2023/01/08 10:53:49;;;;;;;7.90;1.50;;;10.30;99.90;;;;;;5066930;28;20450;-69
2023/01/08 10:56:24;;;;;;;8.60;1.80;;;10.30;99.90;;;;;;5050005;28;20052;-67
2023/01/08 10:58:50;;;;;;;8.55;1.67;;;10.20;99.90;;;;;;5065156;28;20047;-68
2023/01/08 11:01:30;;;;;;;6.30;2.10;;;10.20;99.90;;;;;;5064435;28;20499;-67
2023/01/08 11:04:03;;;;;;;4.18;1.48;;;10.30;99.90;;;;;;5067820;28;20041;-68
2023/01/08 11:06:32;;;;;;;7.95;2.10;;;10.30;99.90;;;;;;5051037;28;20128;-68
2023/01/08 11:09:03;;;;;;;8.50;2.00;;;10.30;99.90;;;;;;5069922;28;20404;-67
2023/01/08 11:11:37;;;;;;;6.70;1.88;;;10.30;99.90;;;;;;5067457;28;20082;-68
2023/01/08 11:14:05;;;;;;;7.93;1.40;;;10.40;99.90;;;;;;5069521;28;20133;-67
2023/01/08 11:16:39;;;;;;;9.65;1.90;;;10.40;99.90;;;;;;5071832;28;20498;-68
2023/01/08 11:19:23;;;;;;;7.78;1.30;;;10.10;99.90;;;;;;5071028;28;20116;-68
2023/01/08 11:22:16;;;;;;;8.40;1.90;;;10.00;99.90;;;;;;5069754;28;20735;-66
2023/01/08 11:24:43;;;;;;;9.68;2.35;;;10.30;99.90;;;;;;5070151;28;20036;-68
2023/01/08 11:27:12;;;;;;;13.00;2.03;;;10.50;99.90;;;;;;5070443;28;20479;-68
2023/01/08 11:29:49;;;;;;;8.15;2.42;;;11.10;99.90;;;;;;5068635;28;21403;-68
2023/01/08 11:32:17;;;;;;;10.85;2.03;;;11.00;99.90;;;;;;5070087;28;20042;-69
2023/01/08 11:35:03;;;;;;;8.82;1.77;;;11.10;99.90;;;;;;5071957;28;20407;-67
2023/01/08 11:37:35;;;;;;;9.88;2.63;;;10.90;99.90;;;;;;5070666;28;20043;-66
2023/01/08 11:40:02;;;;;;;9.88;2.47;;;10.60;99.90;;;;;;5067921;28;20048;-67
2023/01/08 11:42:50;;;;;;;10.73;2.00;;;10.30;99.90;;;;;;5069559;28;20111;-67
2023/01/08 11:45:41;;;;;;;9.00;1.90;;;10.20;99.90;;;;;;5068486;28;20082;-67
2023/01/08 11:48:07;;;;;;;9.23;1.73;;;10.20;99.90;;;;;;5062765;28;20087;-66
2023/01/08 11:50:49;;;;;;;7.75;1.88;;;9.90;99.90;;;;;;5066906;28;20075;-68
2023/01/08 11:53:30;;;;;;;9.10;2.10;;;9.90;99.90;;;;;;5069925;28;20124;-69
2023/01/08 11:55:58;;;;;;;8.32;1.55;;;10.00;99.90;;;;;;5071417;28;20084;-65
2023/01/08 11:59:15;;;;;;;11.38;2.00;;;10.60;99.90;;;;;;5070940;28;20498;-68
2023/01/08 12:01:46;;;;;;;8.68;2.15;;;11.60;99.90;;;;;;4999387;28;20068;-70
2023/01/08 12:04:14;;;;;;;8.88;1.50;;;11.50;99.90;;;;;;5012308;28;20420;-68
2023/01/08 12:06:50;;;;;;;8.52;1.50;;;11.40;99.90;;;;;;4996458;28;20044;-67
2023/01/08 12:09:39;;;;;;;8.55;2.17;;;12.30;99.90;;;;;;5012212;28;20049;-67
2023/01/08 12:12:28;;;;;;;7.38;1.50;;;13.00;99.90;;;;;;5014391;28;20045;-69
2023/01/08 12:15:10;;;;;;;9.27;1.67;;;12.20;99.90;;;;;;5013458;28;20046;-66
2023/01/08 12:17:48;;;;;;;8.27;1.80;;;12.30;99.90;;;;;;5013426;28;20492;-68
2023/01/08 12:20:23;;;;;;;10.27;1.85;;;12.00;99.90;;;;;;5010415;28;20111;-67
2023/01/08 12:23:07;;;;;;;9.48;1.95;;;11.80;99.90;;;;;;4995701;28;20049;-68
2023/01/08 12:25:41;;;;;;;8.90;1.90;;;11.60;99.90;;;;;;5011132;28;20053;-68
2023/01/08 12:28:44;;;;;;;9.02;2.10;;;12.20;99.90;;;;;;4995862;28;20048;-67
2023/01/08 12:31:18;;;;;;;7.72;2.05;;;11.80;99.90;;;;;;5024097;28;20042;-67
2023/01/08 12:34:06;;;;;;;5.47;1.70;;;11.60;99.90;;;;;;5009138;28;20520;-68
2023/01/08 12:36:52;;;;;;;6.13;1.40;;;12.40;99.90;;;;;;5019735;28;20117;-67
2023/01/08 12:39:26;;;;;;;7.50;1.50;;;12.70;99.90;;;;;;5066796;28;20079;-68
2023/01/08 12:41:55;;;;;;;5.75;1.70;;;13.10;99.90;;;;;;5052616;28;20499;-67
2023/01/08 12:44:28;;;;;;;8.02;1.63;;;13.50;99.90;;;;;;5051437;28;20083;-66
2023/01/08 12:46:57;;;;;;;5.32;1.40;;;13.20;99.90;;;;;;5054064;28;20091;-66
2023/01/08 12:49:36;;;;;;;8.70;1.77;;;13.70;99.90;;;;;;5070377;28;20437;-66
2023/01/08 12:52:14;;;;;;;7.78;1.55;;;14.70;99.90;;;;;;5069093;28;20040;-67
2023/01/08 12:54:50;;;;;;;7.32;1.42;;;15.00;99.90;;;;;;5067884;28;20040;-66
2023/01/08 12:57:38;;;;;;;9.90;1.35;;;14.70;99.90;;;;;;5068756;28;20033;-67
2023/01/08 13:00:38;;;;;;;3.97;1.23;;;14.30;99.90;;;;;;5064023;28;20053;-67
2023/01/08 13:03:09;;;;;;;6.47;1.83;;;14.20;99.90;;;;;;5010753;28;20049;-70
2023/01/08 13:05:36;;;;;;;5.93;1.35;;;14.20;99.90;;;;;;5012124;28;20045;-66
2023/01/08 13:08:33;;;;;;;5.10;1.20;;;14.70;99.90;;;;;;5027341;28;20079;-68